sensor_id;sensor_type;location;lat;lon;timestamp;P1;durP1;ratioP1;P2;durP2;ratioP2
65234;SDS011;51820;48.374;10.930;2023-02-28T00:00:05;6.00;;;1.95;;
65234;SDS011;51820;48.374;10.930;2023-02-28T00:02:36;5.75;;;1.75;;
65234;SDS011;51820;48.374;10.930;2023-02-28T00:05:05;6.67;;;2.13;;
65234;SDS011;51820;48.374;10.930;2023-02-28T00:07:35;5.82;;;2.15;;
65234;SDS011;51820;48.374;10.930;2023-02-28T00:10:04;6.00;;;2.13;;
65234;SDS011;51820;48.374;10.930;2023-02-28T00:12:34;8.10;;;2.40;;
65234;SDS011;51820;48.374;10.930;2023-02-28T00:15:06;6.43;;;2.20;;
65234;SDS011;51820;48.374;10.930;2023-02-28T00:17:36;7.63;;;1.77;;
65234;SDS011;51820;48.374;10.930;2023-02-28T00:20:05;6.18;;;2.08;;
65234;SDS011;51820;48.374;10.930;2023-02-28T00:22:37;5.25;;;1.95;;
65234;SDS011;51820;48.374;10.930;2023-02-28T00:25:06;10.60;;;2.15;;
65234;SDS011;51820;48.374;10.930;2023-02-28T00:27:35;6.82;;;2.20;;
65234;SDS011;51820;48.374;10.930;2023-02-28T00:30:08;6.03;;;1.80;;
65234;SDS011;51820;48.374;10.930;2023-02-28T00:32:38;6.78;;;2.08;;
65234;SDS011;51820;48.374;10.930;2023-02-28T00:35:07;6.55;;;2.05;;
65234;SDS011;51820;48.374;10.930;2023-02-28T00:37:36;6.10;;;2.15;;
65234;SDS011;51820;48.374;10.930;2023-02-28T00:40:05;7.50;;;2.20;;
65234;SDS011;51820;48.374;10.930;2023-02-28T00:42:35;5.73;;;1.90;;
65234;SDS011;51820;48.374;10.930;2023-02-28T00:45:06;5.68;;;1.73;;
65234;SDS011;51820;48.374;10.930;2023-02-28T00:47:37;7.07;;;2.25;;
65234;SDS011;51820;48.374;10.930;2023-02-28T00:50:06;8.25;;;2.10;;
65234;SDS011;51820;48.374;10.930;2023-02-28T00:52:35;6.95;;;2.00;;
65234;SDS011;51820;48.374;10.930;2023-02-28T00:55:04;6.10;;;2.10;;
65234;SDS011;51820;48.374;10.930;2023-02-28T00:57:32;9.07;;;2.60;;
65234;SDS011;51820;48.374;10.930;2023-02-28T01:00:02;6.25;;;2.17;;
65234;SDS011;51820;48.374;10.930;2023-02-28T01:02:33;7.28;;;2.30;;
65234;SDS011;51820;48.374;10.930;2023-02-28T01:05:01;5.97;;;2.10;;
65234;SDS011;51820;48.374;10.930;2023-02-28T01:07:30;8.07;;;2.07;;
65234;SDS011;51820;48.374;10.930;2023-02-28T01:10:01;6.10;;;2.03;;
65234;SDS011;51820;48.374;10.930;2023-02-28T01:12:30;6.00;;;2.28;;
65234;SDS011;51820;48.374;10.930;2023-02-28T01:14:58;6.03;;;2.30;;
65234;SDS011;51820;48.374;10.930;2023-02-28T01:17:27;6.88;;;2.40;;
65234;SDS011;51820;48.374;10.930;2023-02-28T01:19:56;6.43;;;1.90;;
65234;SDS011;51820;48.374;10.930;2023-02-28T01:22:24;6.63;;;2.03;;
65234;SDS011;51820;48.374;10.930;2023-02-28T01:24:53;6.55;;;2.38;;
65234;SDS011;51820;48.374;10.930;2023-02-28T01:27:22;7.82;;;2.40;;
65234;SDS011;51820;48.374;10.930;2023-02-28T01:29:51;6.72;;;2.65;;
65234;SDS011;51820;48.374;10.930;2023-02-28T01:32:19;8.27;;;2.10;;
65234;SDS011;51820;48.374;10.930;2023-02-28T01:34:49;5.80;;;2.17;;
65234;SDS011;51820;48.374;10.930;2023-02-28T01:37:18;7.35;;;2.20;;
65234;SDS011;51820;48.374;10.930;2023-02-28T01:39:46;7.38;;;2.22;;
65234;SDS011;51820;48.374;10.930;2023-02-28T01:42:15;5.80;;;2.20;;
65234;SDS011;51820;48.374;10.930;2023-02-28T01:45:00;7.70;;;1.93;;
65234;SDS011;51820;48.374;10.930;2023-02-28T01:47:34;9.10;;;2.10;;
65234;SDS011;51820;48.374;10.930;2023-02-28T01:50:07;9.63;;;2.45;;
65234;SDS011;51820;48.374;10.930;2023-02-28T01:52:41;6.82;;;1.92;;
65234;SDS011;51820;48.374;10.930;2023-02-28T01:55:10;5.45;;;1.80;;
65234;SDS011;51820;48.374;10.930;2023-02-28T01:57:40;6.73;;;2.23;;
65234;SDS011;51820;48.374;10.930;2023-02-28T02:00:15;6.65;;;2.08;;
65234;SDS011;51820;48.374;10.930;2023-02-28T02:02:51;7.75;;;2.08;;
65234;SDS011;51820;48.374;10.930;2023-02-28T02:05:23;7.45;;;2.50;;
65234;SDS011;51820;48.374;10.930;2023-02-28T02:07:55;8.60;;;2.80;;
65234;SDS011;51820;48.374;10.930;2023-02-28T02:10:29;8.70;;;2.23;;
65234;SDS011;51820;48.374;10.930;2023-02-28T02:13:05;6.95;;;2.25;;
65234;SDS011;51820;48.374;10.930;2023-02-28T02:15:42;6.95;;;2.55;;
65234;SDS011;51820;48.374;10.930;2023-02-28T02:18:18;5.97;;;2.38;;
65234;SDS011;51820;48.374;10.930;2023-02-28T02:21:05;6.00;;;2.15;;
65234;SDS011;51820;48.374;10.930;2023-02-28T02:27:16;8.65;;;2.60;;
65234;SDS011;51820;48.374;10.930;2023-02-28T02:33:06;7.35;;;2.33;;
65234;SDS011;51820;48.374;10.930;2023-02-28T02:35:55;7.70;;;2.85;;
65234;SDS011;51820;48.374;10.930;2023-02-28T02:38:29;8.27;;;3.10;;
65234;SDS011;51820;48.374;10.930;2023-02-28T02:41:04;7.68;;;2.67;;
65234;SDS011;51820;48.374;10.930;2023-02-28T02:43:39;5.85;;;2.35;;
65234;SDS011;51820;48.374;10.930;2023-02-28T02:46:17;6.85;;;2.40;;
65234;SDS011;51820;48.374;10.930;2023-02-28T02:48:48;8.02;;;2.50;;
65234;SDS011;51820;48.374;10.930;2023-02-28T02:51:20;7.57;;;2.70;;
65234;SDS011;51820;48.374;10.930;2023-02-28T02:53:51;8.43;;;2.50;;
65234;SDS011;51820;48.374;10.930;2023-02-28T02:56:25;6.60;;;2.22;;
65234;SDS011;51820;48.374;10.930;2023-02-28T02:58:57;8.60;;;2.67;;
65234;SDS011;51820;48.374;10.930;2023-02-28T03:01:30;8.88;;;2.95;;
65234;SDS011;51820;48.374;10.930;2023-02-28T03:04:01;8.03;;;2.73;;
65234;SDS011;51820;48.374;10.930;2023-02-28T03:06:33;11.57;;;2.95;;
65234;SDS011;51820;48.374;10.930;2023-02-28T03:09:02;6.60;;;2.72;;
65234;SDS011;51820;48.374;10.930;2023-02-28T03:11:30;8.18;;;2.83;;
65234;SDS011;51820;48.374;10.930;2023-02-28T03:14:05;8.18;;;2.88;;
65234;SDS011;51820;48.374;10.930;2023-02-28T03:19:45;8.98;;;2.65;;
65234;SDS011;51820;48.374;10.930;2023-02-28T03:25:20;7.40;;;3.00;;
65234;SDS011;51820;48.374;10.930;2023-02-28T03:28:00;9.13;;;3.35;;
65234;SDS011;51820;48.374;10.930;2023-02-28T03:30:34;7.93;;;3.33;;
65234;SDS011;51820;48.374;10.930;2023-02-28T03:33:10;9.77;;;3.67;;
65234;SDS011;51820;48.374;10.930;2023-02-28T03:35:42;7.25;;;2.83;;
65234;SDS011;51820;48.374;10.930;2023-02-28T03:38:15;10.13;;;3.25;;
65234;SDS011;51820;48.374;10.930;2023-02-28T03:40:50;9.43;;;3.10;;
65234;SDS011;51820;48.374;10.930;2023-02-28T03:43:23;8.33;;;2.90;;
65234;SDS011;51820;48.374;10.930;2023-02-28T03:45:56;8.05;;;3.10;;
65234;SDS011;51820;48.374;10.930;2023-02-28T03:48:30;8.45;;;3.10;;
65234;SDS011;51820;48.374;10.930;2023-02-28T03:51:04;8.05;;;3.13;;
65234;SDS011;51820;48.374;10.930;2023-02-28T03:53:39;10.90;;;3.45;;
65234;SDS011;51820;48.374;10.930;2023-02-28T03:56:12;8.30;;;3.33;;
65234;SDS011;51820;48.374;10.930;2023-02-28T03:58:44;8.35;;;3.40;;
65234;SDS011;51820;48.374;10.930;2023-02-28T04:01:18;10.30;;;3.13;;
65234;SDS011;51820;48.374;10.930;2023-02-28T04:03:50;7.55;;;2.65;;
65234;SDS011;51820;48.374;10.930;2023-02-28T04:06:20;9.43;;;3.60;;
65234;SDS011;51820;48.374;10.930;2023-02-28T04:08:51;11.77;;;4.70;;
65234;SDS011;51820;48.374;10.930;2023-02-28T04:11:22;11.82;;;4.70;;
65234;SDS011;51820;48.374;10.930;2023-02-28T04:13:53;15.40;;;4.63;;
65234;SDS011;51820;48.374;10.930;2023-02-28T04:16:21;11.15;;;4.85;;
65234;SDS011;51820;48.374;10.930;2023-02-28T04:19:00;10.05;;;3.70;;
65234;SDS011;51820;48.374;10.930;2023-02-28T04:21:31;9.90;;;3.10;;
65234;SDS011;51820;48.374;10.930;2023-02-28T04:24:03;9.75;;;3.50;;
65234;SDS011;51820;48.374;10.930;2023-02-28T04:26:33;11.23;;;3.47;;
65234;SDS011;51820;48.374;10.930;2023-02-28T04:29:04;11.20;;;3.50;;
65234;SDS011;51820;48.374;10.930;2023-02-28T04:31:33;8.45;;;3.30;;
65234;SDS011;51820;48.374;10.930;2023-02-28T04:34:05;10.90;;;3.50;;
65234;SDS011;51820;48.374;10.930;2023-02-28T04:36:33;8.27;;;3.55;;
65234;SDS011;51820;48.374;10.930;2023-02-28T04:39:03;9.77;;;3.83;;
65234;SDS011;51820;48.374;10.930;2023-02-28T04:41:31;9.52;;;3.60;;
65234;SDS011;51820;48.374;10.930;2023-02-28T04:44:00;9.77;;;3.72;;
65234;SDS011;51820;48.374;10.930;2023-02-28T04:46:29;8.43;;;3.30;;
65234;SDS011;51820;48.374;10.930;2023-02-28T04:48:57;14.10;;;3.97;;
65234;SDS011;51820;48.374;10.930;2023-02-28T04:51:26;11.18;;;4.15;;
65234;SDS011;51820;48.374;10.930;2023-02-28T04:53:55;10.00;;;3.58;;
65234;SDS011;51820;48.374;10.930;2023-02-28T04:56:25;10.38;;;3.78;;
65234;SDS011;51820;48.374;10.930;2023-02-28T04:58:53;9.73;;;3.53;;
65234;SDS011;51820;48.374;10.930;2023-02-28T05:01:23;10.73;;;4.45;;
65234;SDS011;51820;48.374;10.930;2023-02-28T05:03:53;11.45;;;4.50;;
65234;SDS011;51820;48.374;10.930;2023-02-28T05:06:23;10.07;;;3.95;;
65234;SDS011;51820;48.374;10.930;2023-02-28T05:08:53;12.38;;;4.55;;
65234;SDS011;51820;48.374;10.930;2023-02-28T05:11:23;9.50;;;3.50;;
65234;SDS011;51820;48.374;10.930;2023-02-28T05:14:04;10.02;;;3.85;;
65234;SDS011;51820;48.374;10.930;2023-02-28T05:16:34;10.65;;;4.32;;
65234;SDS011;51820;48.374;10.930;2023-02-28T05:19:05;12.20;;;4.10;;
65234;SDS011;51820;48.374;10.930;2023-02-28T05:21:48;12.93;;;4.50;;
65234;SDS011;51820;48.374;10.930;2023-02-28T05:24:21;9.13;;;3.47;;
65234;SDS011;51820;48.374;10.930;2023-02-28T05:26:52;9.27;;;3.75;;
65234;SDS011;51820;48.374;10.930;2023-02-28T05:29:21;12.98;;;3.83;;
65234;SDS011;51820;48.374;10.930;2023-02-28T05:31:50;9.48;;;4.15;;
65234;SDS011;51820;48.374;10.930;2023-02-28T05:34:19;11.35;;;3.92;;
65234;SDS011;51820;48.374;10.930;2023-02-28T05:36:48;13.63;;;6.30;;
65234;SDS011;51820;48.374;10.930;2023-02-28T05:39:16;14.98;;;5.05;;
65234;SDS011;51820;48.374;10.930;2023-02-28T05:41:48;9.85;;;4.00;;
65234;SDS011;51820;48.374;10.930;2023-02-28T05:44:17;10.20;;;4.57;;
65234;SDS011;51820;48.374;10.930;2023-02-28T05:46:46;11.40;;;3.95;;
65234;SDS011;51820;48.374;10.930;2023-02-28T05:49:17;11.47;;;4.30;;
65234;SDS011;51820;48.374;10.930;2023-02-28T05:51:46;12.10;;;4.32;;
65234;SDS011;51820;48.374;10.930;2023-02-28T05:54:14;12.15;;;4.45;;
65234;SDS011;51820;48.374;10.930;2023-02-28T05:56:45;11.90;;;4.63;;
65234;SDS011;51820;48.374;10.930;2023-02-28T05:59:15;12.15;;;4.65;;
65234;SDS011;51820;48.374;10.930;2023-02-28T06:01:48;13.03;;;4.73;;
65234;SDS011;51820;48.374;10.930;2023-02-28T06:04:16;10.85;;;4.82;;
65234;SDS011;51820;48.374;10.930;2023-02-28T06:06:57;16.52;;;6.53;;
65234;SDS011;51820;48.374;10.930;2023-02-28T06:09:25;16.02;;;7.65;;
65234;SDS011;51820;48.374;10.930;2023-02-28T06:11:54;17.67;;;5.68;;
65234;SDS011;51820;48.374;10.930;2023-02-28T06:14:22;11.63;;;4.97;;
65234;SDS011;51820;48.374;10.930;2023-02-28T06:16:52;11.90;;;4.47;;
65234;SDS011;51820;48.374;10.930;2023-02-28T06:19:23;13.18;;;5.80;;
65234;SDS011;51820;48.374;10.930;2023-02-28T06:21:52;19.77;;;7.45;;
65234;SDS011;51820;48.374;10.930;2023-02-28T06:24:21;13.23;;;5.65;;
65234;SDS011;51820;48.374;10.930;2023-02-28T06:26:50;19.23;;;8.27;;
65234;SDS011;51820;48.374;10.930;2023-02-28T06:29:19;11.05;;;4.80;;
65234;SDS011;51820;48.374;10.930;2023-02-28T06:31:47;15.80;;;5.93;;
65234;SDS011;51820;48.374;10.930;2023-02-28T06:34:17;14.07;;;4.70;;
65234;SDS011;51820;48.374;10.930;2023-02-28T06:36:45;15.20;;;5.45;;
65234;SDS011;51820;48.374;10.930;2023-02-28T06:39:14;19.87;;;7.00;;
65234;SDS011;51820;48.374;10.930;2023-02-28T06:41:42;14.50;;;4.22;;
65234;SDS011;51820;48.374;10.930;2023-02-28T06:44:21;9.98;;;4.47;;
65234;SDS011;51820;48.374;10.930;2023-02-28T06:46:50;10.98;;;4.55;;
65234;SDS011;51820;48.374;10.930;2023-02-28T06:49:20;13.70;;;5.43;;
65234;SDS011;51820;48.374;10.930;2023-02-28T06:51:51;10.33;;;4.70;;
65234;SDS011;51820;48.374;10.930;2023-02-28T06:54:20;14.07;;;4.90;;
65234;SDS011;51820;48.374;10.930;2023-02-28T06:56:54;9.80;;;4.70;;
65234;SDS011;51820;48.374;10.930;2023-02-28T06:59:25;10.05;;;3.80;;
65234;SDS011;51820;48.374;10.930;2023-02-28T07:01:54;13.40;;;4.57;;
65234;SDS011;51820;48.374;10.930;2023-02-28T07:04:24;12.40;;;5.17;;
65234;SDS011;51820;48.374;10.930;2023-02-28T07:06:52;12.85;;;4.85;;
65234;SDS011;51820;48.374;10.930;2023-02-28T07:09:22;10.35;;;4.88;;
65234;SDS011;51820;48.374;10.930;2023-02-28T07:11:56;12.00;;;5.13;;
65234;SDS011;51820;48.374;10.930;2023-02-28T07:14:25;11.10;;;4.90;;
65234;SDS011;51820;48.374;10.930;2023-02-28T07:16:53;17.40;;;5.17;;
65234;SDS011;51820;48.374;10.930;2023-02-28T07:19:23;12.70;;;4.95;;
65234;SDS011;51820;48.374;10.930;2023-02-28T07:21:52;11.10;;;4.78;;
65234;SDS011;51820;48.374;10.930;2023-02-28T07:24:20;11.90;;;5.18;;
65234;SDS011;51820;48.374;10.930;2023-02-28T07:26:52;13.27;;;5.00;;
65234;SDS011;51820;48.374;10.930;2023-02-28T07:29:20;10.70;;;4.33;;
65234;SDS011;51820;48.374;10.930;2023-02-28T07:31:49;11.50;;;5.10;;
65234;SDS011;51820;48.374;10.930;2023-02-28T07:34:19;11.52;;;4.63;;
65234;SDS011;51820;48.374;10.930;2023-02-28T07:36:51;12.35;;;4.95;;
65234;SDS011;51820;48.374;10.930;2023-02-28T07:39:20;14.52;;;5.10;;
65234;SDS011;51820;48.374;10.930;2023-02-28T07:41:49;15.53;;;4.70;;
65234;SDS011;51820;48.374;10.930;2023-02-28T07:44:26;14.20;;;4.45;;
65234;SDS011;51820;48.374;10.930;2023-02-28T07:46:54;12.00;;;4.88;;
65234;SDS011;51820;48.374;10.930;2023-02-28T07:49:23;12.38;;;4.80;;
65234;SDS011;51820;48.374;10.930;2023-02-28T07:51:53;10.52;;;4.43;;
65234;SDS011;51820;48.374;10.930;2023-02-28T07:54:21;11.53;;;5.00;;
65234;SDS011;51820;48.374;10.930;2023-02-28T07:56:50;13.48;;;5.63;;
65234;SDS011;51820;48.374;10.930;2023-02-28T07:59:18;15.63;;;5.43;;
65234;SDS011;51820;48.374;10.930;2023-02-28T08:01:47;12.95;;;4.95;;
65234;SDS011;51820;48.374;10.930;2023-02-28T08:04:16;12.75;;;4.60;;
65234;SDS011;51820;48.374;10.930;2023-02-28T08:06:45;16.70;;;5.80;;
65234;SDS011;51820;48.374;10.930;2023-02-28T08:09:15;17.15;;;5.05;;
65234;SDS011;51820;48.374;10.930;2023-02-28T08:11:43;13.68;;;5.75;;
65234;SDS011;51820;48.374;10.930;2023-02-28T08:14:11;16.05;;;5.35;;
65234;SDS011;51820;48.374;10.930;2023-02-28T08:16:40;14.25;;;5.88;;
65234;SDS011;51820;48.374;10.930;2023-02-28T08:19:09;12.27;;;5.03;;
65234;SDS011;51820;48.374;10.930;2023-02-28T08:21:37;12.32;;;5.32;;
65234;SDS011;51820;48.374;10.930;2023-02-28T08:24:06;13.38;;;5.78;;
65234;SDS011;51820;48.374;10.930;2023-02-28T08:26:35;14.38;;;5.75;;
65234;SDS011;51820;48.374;10.930;2023-02-28T08:29:04;14.00;;;6.07;;
65234;SDS011;51820;48.374;10.930;2023-02-28T08:31:32;12.73;;;5.50;;
65234;SDS011;51820;48.374;10.930;2023-02-28T08:34:04;15.43;;;5.35;;
65234;SDS011;51820;48.374;10.930;2023-02-28T08:36:33;12.20;;;5.60;;
65234;SDS011;51820;48.374;10.930;2023-02-28T08:39:01;15.77;;;5.55;;
65234;SDS011;51820;48.374;10.930;2023-02-28T08:41:31;14.70;;;5.95;;
65234;SDS011;51820;48.374;10.930;2023-02-28T08:44:01;14.07;;;5.93;;
65234;SDS011;51820;48.374;10.930;2023-02-28T08:46:31;14.63;;;6.10;;
65234;SDS011;51820;48.374;10.930;2023-02-28T08:48:59;13.48;;;6.18;;
65234;SDS011;51820;48.374;10.930;2023-02-28T08:51:28;14.32;;;5.95;;
65234;SDS011;51820;48.374;10.930;2023-02-28T08:53:57;12.48;;;5.70;;
65234;SDS011;51820;48.374;10.930;2023-02-28T08:56:27;15.30;;;6.33;;
65234;SDS011;51820;48.374;10.930;2023-02-28T08:58:56;14.20;;;5.65;;
65234;SDS011;51820;48.374;10.930;2023-02-28T09:01:27;14.00;;;5.90;;
65234;SDS011;51820;48.374;10.930;2023-02-28T09:03:57;11.48;;;4.97;;
65234;SDS011;51820;48.374;10.930;2023-02-28T09:06:25;14.70;;;6.22;;
65234;SDS011;51820;48.374;10.930;2023-02-28T09:08:56;16.57;;;5.63;;
65234;SDS011;51820;48.374;10.930;2023-02-28T09:11:25;16.67;;;6.03;;
65234;SDS011;51820;48.374;10.930;2023-02-28T09:13:54;15.05;;;6.80;;
65234;SDS011;51820;48.374;10.930;2023-02-28T09:16:22;15.40;;;5.20;;
65234;SDS011;51820;48.374;10.930;2023-02-28T09:18:52;14.82;;;6.32;;
65234;SDS011;51820;48.374;10.930;2023-02-28T09:21:20;13.10;;;5.63;;
65234;SDS011;51820;48.374;10.930;2023-02-28T09:23:50;12.15;;;6.03;;
65234;SDS011;51820;48.374;10.930;2023-02-28T09:26:19;13.13;;;5.65;;
65234;SDS011;51820;48.374;10.930;2023-02-28T09:28:50;14.35;;;6.28;;
65234;SDS011;51820;48.374;10.930;2023-02-28T09:31:19;12.48;;;5.65;;
65234;SDS011;51820;48.374;10.930;2023-02-28T09:33:50;16.10;;;6.50;;
65234;SDS011;51820;48.374;10.930;2023-02-28T09:36:21;15.60;;;6.47;;
65234;SDS011;51820;48.374;10.930;2023-02-28T09:38:59;16.52;;;6.20;;
65234;SDS011;51820;48.374;10.930;2023-02-28T09:41:27;13.55;;;6.25;;
65234;SDS011;51820;48.374;10.930;2023-02-28T09:44:06;13.82;;;5.75;;
65234;SDS011;51820;48.374;10.930;2023-02-28T09:46:42;18.33;;;6.27;;
65234;SDS011;51820;48.374;10.930;2023-02-28T09:49:14;16.95;;;6.53;;
65234;SDS011;51820;48.374;10.930;2023-02-28T09:51:50;12.82;;;5.85;;
65234;SDS011;51820;48.374;10.930;2023-02-28T09:54:23;13.93;;;6.45;;
65234;SDS011;51820;48.374;10.930;2023-02-28T09:56:55;17.83;;;7.05;;
65234;SDS011;51820;48.374;10.930;2023-02-28T09:59:32;14.20;;;6.17;;
65234;SDS011;51820;48.374;10.930;2023-02-28T10:02:12;12.45;;;5.50;;
65234;SDS011;51820;48.374;10.930;2023-02-28T10:04:50;15.65;;;6.28;;
65234;SDS011;51820;48.374;10.930;2023-02-28T10:07:37;23.17;;;7.10;;
65234;SDS011;51820;48.374;10.930;2023-02-28T10:10:18;13.52;;;7.13;;
65234;SDS011;51820;48.374;10.930;2023-02-28T10:12:48;14.20;;;6.33;;
65234;SDS011;51820;48.374;10.930;2023-02-28T10:15:21;14.35;;;6.80;;
65234;SDS011;51820;48.374;10.930;2023-02-28T10:17:51;14.60;;;6.63;;
65234;SDS011;51820;48.374;10.930;2023-02-28T10:20:35;13.88;;;6.20;;
65234;SDS011;51820;48.374;10.930;2023-02-28T10:23:09;15.73;;;7.32;;
65234;SDS011;51820;48.374;10.930;2023-02-28T10:25:45;11.20;;;5.50;;
65234;SDS011;51820;48.374;10.930;2023-02-28T10:28:17;14.40;;;6.65;;
65234;SDS011;51820;48.374;10.930;2023-02-28T10:30:47;15.10;;;6.65;;
65234;SDS011;51820;48.374;10.930;2023-02-28T10:33:21;13.60;;;6.03;;
65234;SDS011;51820;48.374;10.930;2023-02-28T10:35:57;14.65;;;6.57;;
65234;SDS011;51820;48.374;10.930;2023-02-28T10:38:28;14.50;;;6.60;;
65234;SDS011;51820;48.374;10.930;2023-02-28T10:41:03;15.15;;;6.75;;
65234;SDS011;51820;48.374;10.930;2023-02-28T10:43:33;15.95;;;6.82;;
65234;SDS011;51820;48.374;10.930;2023-02-28T10:46:04;12.60;;;6.07;;
65234;SDS011;51820;48.374;10.930;2023-02-28T10:48:44;13.73;;;6.70;;
65234;SDS011;51820;48.374;10.930;2023-02-28T10:51:18;16.67;;;6.77;;
65234;SDS011;51820;48.374;10.930;2023-02-28T10:53:51;14.32;;;6.75;;
65234;SDS011;51820;48.374;10.930;2023-02-28T10:56:27;12.93;;;6.20;;
65234;SDS011;51820;48.374;10.930;2023-02-28T10:58:59;15.68;;;7.20;;
65234;SDS011;51820;48.374;10.930;2023-02-28T11:01:39;14.48;;;7.00;;
65234;SDS011;51820;48.374;10.930;2023-02-28T11:04:17;13.10;;;6.33;;
65234;SDS011;51820;48.374;10.930;2023-02-28T11:07:16;14.05;;;6.60;;
65234;SDS011;51820;48.374;10.930;2023-02-28T11:09:57;16.30;;;6.90;;
65234;SDS011;51820;48.374;10.930;2023-02-28T11:12:26;16.05;;;7.22;;
65234;SDS011;51820;48.374;10.930;2023-02-28T11:15:18;15.20;;;8.18;;
65234;SDS011;51820;48.374;10.930;2023-02-28T11:17:54;14.70;;;6.83;;
65234;SDS011;51820;48.374;10.930;2023-02-28T11:20:25;14.95;;;7.22;;
65234;SDS011;51820;48.374;10.930;2023-02-28T11:22:58;12.27;;;5.97;;
65234;SDS011;51820;48.374;10.930;2023-02-28T11:25:32;14.95;;;7.18;;
65234;SDS011;51820;48.374;10.930;2023-02-28T11:28:22;15.10;;;7.30;;
65234;SDS011;51820;48.374;10.930;2023-02-28T11:31:14;16.70;;;7.20;;
65234;SDS011;51820;48.374;10.930;2023-02-28T11:33:47;12.40;;;6.75;;
65234;SDS011;51820;48.374;10.930;2023-02-28T11:36:18;17.63;;;7.10;;
65234;SDS011;51820;48.374;10.930;2023-02-28T11:38:52;17.63;;;6.38;;
65234;SDS011;51820;48.374;10.930;2023-02-28T11:41:37;13.45;;;6.72;;
65234;SDS011;51820;48.374;10.930;2023-02-28T11:47:33;14.20;;;7.55;;
65234;SDS011;51820;48.374;10.930;2023-02-28T11:50:37;17.02;;;7.55;;
65234;SDS011;51820;48.374;10.930;2023-02-28T11:56:57;15.40;;;6.78;;
65234;SDS011;51820;48.374;10.930;2023-02-28T11:59:37;12.47;;;6.47;;
65234;SDS011;51820;48.374;10.930;2023-02-28T12:02:28;13.68;;;6.65;;
65234;SDS011;51820;48.374;10.930;2023-02-28T12:05:09;14.45;;;6.53;;
65234;SDS011;51820;48.374;10.930;2023-02-28T12:07:55;12.80;;;6.68;;
65234;SDS011;51820;48.374;10.930;2023-02-28T12:10:34;15.30;;;6.75;;
65234;SDS011;51820;48.374;10.930;2023-02-28T12:13:11;13.23;;;7.10;;
65234;SDS011;51820;48.374;10.930;2023-02-28T12:15:59;13.73;;;7.13;;
65234;SDS011;51820;48.374;10.930;2023-02-28T12:18:51;16.38;;;8.20;;
65234;SDS011;51820;48.374;10.930;2023-02-28T12:21:31;14.98;;;7.53;;
65234;SDS011;51820;48.374;10.930;2023-02-28T12:24:17;14.88;;;7.15;;
65234;SDS011;51820;48.374;10.930;2023-02-28T12:27:02;13.37;;;6.73;;
65234;SDS011;51820;48.374;10.930;2023-02-28T12:29:43;12.07;;;6.88;;
65234;SDS011;51820;48.374;10.930;2023-02-28T12:32:20;13.18;;;6.75;;
65234;SDS011;51820;48.374;10.930;2023-02-28T12:35:03;12.13;;;6.78;;
65234;SDS011;51820;48.374;10.930;2023-02-28T12:37:40;14.32;;;7.32;;
65234;SDS011;51820;48.374;10.930;2023-02-28T12:40:15;12.53;;;6.50;;
65234;SDS011;51820;48.374;10.930;2023-02-28T12:42:49;12.90;;;7.38;;
65234;SDS011;51820;48.374;10.930;2023-02-28T12:45:26;14.73;;;7.18;;
65234;SDS011;51820;48.374;10.930;2023-02-28T12:48:11;18.35;;;7.88;;
65234;SDS011;51820;48.374;10.930;2023-02-28T12:50:42;14.15;;;7.50;;
65234;SDS011;51820;48.374;10.930;2023-02-28T12:53:14;18.43;;;7.17;;
65234;SDS011;51820;48.374;10.930;2023-02-28T12:55:56;16.65;;;7.00;;
65234;SDS011;51820;48.374;10.930;2023-02-28T12:58:33;13.07;;;6.53;;
65234;SDS011;51820;48.374;10.930;2023-02-28T13:01:24;13.80;;;7.15;;
65234;SDS011;51820;48.374;10.930;2023-02-28T13:07:12;13.47;;;7.27;;
65234;SDS011;51820;48.374;10.930;2023-02-28T13:10:17;16.10;;;7.85;;
65234;SDS011;51820;48.374;10.930;2023-02-28T13:12:57;15.63;;;8.25;;
65234;SDS011;51820;48.374;10.930;2023-02-28T13:15:37;15.65;;;7.22;;
65234;SDS011;51820;48.374;10.930;2023-02-28T13:18:27;13.43;;;7.40;;
65234;SDS011;51820;48.374;10.930;2023-02-28T13:21:04;14.50;;;7.10;;
65234;SDS011;51820;48.374;10.930;2023-02-28T13:23:41;14.80;;;7.00;;
65234;SDS011;51820;48.374;10.930;2023-02-28T13:41:48;15.23;;;7.15;;
65234;SDS011;51820;48.374;10.930;2023-02-28T13:48:16;16.85;;;7.20;;
65234;SDS011;51820;48.374;10.930;2023-02-28T13:57:40;13.82;;;6.03;;
65234;SDS011;51820;48.374;10.930;2023-02-28T14:01:09;14.85;;;7.15;;
65234;SDS011;51820;48.374;10.930;2023-02-28T14:04:21;13.20;;;6.43;;
65234;SDS011;51820;48.374;10.930;2023-02-28T14:09:49;19.40;;;9.55;;
65234;SDS011;51820;48.374;10.930;2023-02-28T14:11:08;11.97;;;6.73;;
65234;SDS011;51820;48.374;10.930;2023-02-28T14:17:34;13.32;;;6.50;;
65234;SDS011;51820;48.374;10.930;2023-02-28T14:20:05;16.10;;;7.10;;
65234;SDS011;51820;48.374;10.930;2023-02-28T14:22:44;14.02;;;6.85;;
65234;SDS011;51820;48.374;10.930;2023-02-28T14:25:23;13.93;;;6.73;;
65234;SDS011;51820;48.374;10.930;2023-02-28T14:28:04;13.93;;;6.53;;
65234;SDS011;51820;48.374;10.930;2023-02-28T14:30:51;13.73;;;6.22;;
65234;SDS011;51820;48.374;10.930;2023-02-28T14:33:31;13.68;;;6.03;;
65234;SDS011;51820;48.374;10.930;2023-02-28T14:36:19;13.73;;;6.55;;
65234;SDS011;51820;48.374;10.930;2023-02-28T14:38:55;16.37;;;6.77;;
65234;SDS011;51820;48.374;10.930;2023-02-28T14:41:28;12.95;;;6.30;;
65234;SDS011;51820;48.374;10.930;2023-02-28T14:43:59;12.50;;;6.68;;
65234;SDS011;51820;48.374;10.930;2023-02-28T14:46:30;16.02;;;6.97;;
65234;SDS011;51820;48.374;10.930;2023-02-28T14:49:11;14.07;;;6.90;;
65234;SDS011;51820;48.374;10.930;2023-02-28T14:52:02;11.90;;;5.70;;
65234;SDS011;51820;48.374;10.930;2023-02-28T14:54:36;12.02;;;6.50;;
65234;SDS011;51820;48.374;10.930;2023-02-28T14:57:05;13.73;;;6.40;;
65234;SDS011;51820;48.374;10.930;2023-02-28T14:59:36;13.57;;;6.43;;
65234;SDS011;51820;48.374;10.930;2023-02-28T15:02:18;13.05;;;6.40;;
65234;SDS011;51820;48.374;10.930;2023-02-28T15:04:54;13.30;;;6.70;;
65234;SDS011;51820;48.374;10.930;2023-02-28T15:07:27;16.42;;;6.43;;
65234;SDS011;51820;48.374;10.930;2023-02-28T15:10:16;14.02;;;6.53;;
65234;SDS011;51820;48.374;10.930;2023-02-28T15:12:49;13.18;;;6.78;;
65234;SDS011;51820;48.374;10.930;2023-02-28T15:15:23;16.35;;;7.22;;
65234;SDS011;51820;48.374;10.930;2023-02-28T15:18:14;15.87;;;6.83;;
65234;SDS011;51820;48.374;10.930;2023-02-28T15:20:51;14.02;;;6.75;;
65234;SDS011;51820;48.374;10.930;2023-02-28T15:23:20;13.82;;;6.82;;
65234;SDS011;51820;48.374;10.930;2023-02-28T15:25:49;15.18;;;6.93;;
65234;SDS011;51820;48.374;10.930;2023-02-28T15:28:20;14.13;;;6.93;;
65234;SDS011;51820;48.374;10.930;2023-02-28T15:30:55;13.93;;;6.83;;
65234;SDS011;51820;48.374;10.930;2023-02-28T15:33:25;15.15;;;7.60;;
65234;SDS011;51820;48.374;10.930;2023-02-28T15:36:05;14.68;;;6.93;;
65234;SDS011;51820;48.374;10.930;2023-02-28T15:38:36;14.43;;;6.30;;
65234;SDS011;51820;48.374;10.930;2023-02-28T15:41:04;14.93;;;6.93;;
65234;SDS011;51820;48.374;10.930;2023-02-28T15:43:35;13.23;;;7.07;;
65234;SDS011;51820;48.374;10.930;2023-02-28T15:46:07;12.32;;;6.50;;
65234;SDS011;51820;48.374;10.930;2023-02-28T15:48:38;16.05;;;6.78;;
65234;SDS011;51820;48.374;10.930;2023-02-28T15:51:15;13.38;;;6.65;;
65234;SDS011;51820;48.374;10.930;2023-02-28T15:53:47;15.80;;;6.65;;
65234;SDS011;51820;48.374;10.930;2023-02-28T15:56:22;13.60;;;6.50;;